메인 페이지
METAR-TAF:

METAR-TAF

공항 :

라르나카 국제공항

라르나카, 키프로스

위도: 34-53N, 경도: 033-38E, 고도: 2m

현재 날씨관측

예보는 14분 전, 13:30시(UTC)에 발표되었습니다.
남서14kt
온도 26°C
습도 48%
기압 1014 hPa
시정 10km 이상
고도 3000ft 상공 구름 조금
고도 6000ft 상공 구름 많음

METAR: LCLK 291330Z 23014KT 9999 FEW030 BKN060 26/14 Q1014 NOSIG

시각: 16:44 (13:44 UTC)

예보

예보는 2 시간 14분 전, 11:30시(UTC)에 발표되었습니다.
예보 대상 시간: 29일 12시부터 30일 12시까지 (UTC)
남서23kt, 순간 최대 풍속 33kt
시정 10km 이상
고도 3000ft 상공 구름 조금
전환 중
29일 15시부터 29일 18시까지 (UTC)
북서9kt
전환 중
30일 08시부터 30일 11시까지 (UTC)
남남서13kt

TAF: LCLK 291130Z 2912/3012 22023G33KT 9999 FEW030 BECMG 2915/2918 31009KT BECMG 3008/3011 20013KT

4,000개 이상의 공항 관측 자료 및 예보 (METAR 및 TAF 보고).

지도상에서 검색 가능한 기상관측소가 노란 점과 빨간 점으로 표시되어 있습니다.

기상관측소 명을 보려면 표시 위로 마우스를 이동하세요.

날씨 관측과 예보를 보려면 클릭하세요.

지도 변경 : 확대하려면 엑스 표시가 있는 녹색 버튼, 축소하려면 빼기 표시가 있는 녹색 버튼, 다음 페이지의 지도를 보려면 녹색 화살표를 클릭하세요.


METAR-TAF: